Pti Danube — VRQD9 — position and weather

sailwx.info

Track history (hours):
 
Tides and Currents Weather Stations Pressure Air Temp Water Temp Dewpoint Dewpoint Depression Visibility Wind Speed Wind Dir Waves Ship Positions

Pti Danube

Last reported at 2017-Dec-11 07:06 UTC. Time now 2017-Dec-18 20:35 UTC.
Position N 49°47' W 003°26'.

Length 183 m; draft 12.1 m.

Type: Ship. MMSI: 477043600.

Date/timePositionNaut miles runAvg speedWind from/ knotsBaromVisibWave heightAir tempDewpointWater temp
2017-Dec-11 07:06N 49°47' W 003°26'112.8
2017-Dec-11 07:01N 49°48' W 003°25'612.9
2017-Dec-11 06:31N 49°51' W 003°16'712.9
2017-Dec-11 06:00N 49°55' W 003°07'612.9
2017-Dec-11 05:30N 49°58' W 002°58'612.5
2017-Dec-11 05:00N 50°00' W 002°49'612.1
2017-Dec-11 04:30N 50°02' W 002°41'611.7
2017-Dec-11 03:58N 50°04' W 002°31'8610.9
2017-Dec-10 20:06N 50°26' W 000°22'113.1
2017-Dec-10 20:00N 50°27' W 000°20'612.7
2017-Dec-10 19:31N 50°28' W 000°10'612.0
2017-Dec-10 19:01N 50°30' W 000°01'510.4
2017-Dec-10 18:31N 50°31' E 000°07'5 9.4
2017-Dec-10 18:00N 50°33' E 000°14'4 8.6
2017-Dec-10 17:31N 50°34' E 000°20'4 7.9
2017-Dec-10 17:01N 50°35' E 000°26'4 7.5
2017-Dec-10 16:31N 50°36' E 000°32'3 6.8
2017-Dec-10 16:01N 50°37' E 000°37'3 5.5
2017-Dec-10 15:31N 50°39' E 000°41'2 4.4
2017-Dec-10 15:00N 50°40' E 000°44'2 3.9
2017-Dec-10 14:31N 50°41' E 000°46'2 3.0
2017-Dec-10 14:01N 50°42' E 000°48'1 1.8
2017-Dec-10 13:31N 50°42' E 000°49'1 1.7
2017-Dec-10 13:01N 50°43' E 000°50'1 1.7
2017-Dec-10 12:31N 50°43' E 000°51'2 4.0
2017-Dec-10 12:01N 50°44' E 000°54'3 6.8
2017-Dec-10 11:30N 50°46' E 000°58'4 7.6
2017-Dec-10 11:01N 50°48' E 001°03'4 8.5
2017-Dec-10 10:29N 50°51' E 001°09'5 9.2
2017-Dec-10 09:57N 50°54' E 001°16'5 9.6
2017-Dec-10 09:23N 50°58' E 001°22'410.3
2017-Dec-10 09:00N 51°01' E 001°26'510.7
2017-Dec-10 08:31N 51°04' E 001°32'510.6
2017-Dec-10 08:00N 51°08' E 001°38'510.5
2017-Dec-10 07:31N 51°12' E 001°43'5 9.9
2017-Dec-10 07:01N 51°16' E 001°48'5 9.8
2017-Dec-10 06:31N 51°20' E 001°51'5 9.9
2017-Dec-10 06:00N 51°25' E 001°55'510.3
2017-Dec-10 05:30N 51°29' E 001°60'511.0
2017-Dec-10 05:01N 51°33' E 002°06'611.5
2017-Dec-10 04:30N 51°37' E 002°12'711.9
2017-Dec-10 03:52N 51°43' E 002°20'5111.8
2017-Dec-09 23:30N 52°03' E 003°37'611.7
2017-Dec-09 23:00N 52°03' E 003°46'4 9.0
2017-Dec-09 22:31N 52°03' E 003°53'2 5.0
2017-Dec-09 22:01N 52°02' E 003°57'510.6
2017-Dec-09 21:31N 51°59' E 004°04'2 3.7
2017-Dec-09 21:01N 51°57' E 004°05'0 0.0
2017-Dec-09 20:29N 51°57' E 004°05'0 0.0
2017-Dec-09 19:59N 51°57' E 004°05'0 0.0
2017-Dec-09 19:29N 51°57' E 004°05'0 0.0
2017-Dec-09 18:59N 51°57' E 004°05'0 0.0
2017-Dec-09 18:26N 51°57' E 004°05'0 0.0
2017-Dec-09 17:59N 51°57' E 004°05'0 0.0
2017-Dec-09 17:29N 51°57' E 004°05'0 0.0
2017-Dec-09 16:59N 51°57' E 004°05'0 0.0
2017-Dec-09 16:29N 51°57' E 004°05'0 0.0
2017-Dec-09 15:59N 51°57' E 004°05'0 0.0
2017-Dec-09 15:26N 51°57' E 004°05'0 0.0
2017-Dec-09 14:56N 51°57' E 004°05'0 0.0
2017-Dec-09 14:29N 51°57' E 004°05'0 0.0
2017-Dec-09 13:56N 51°57' E 004°05'0 0.0
2017-Dec-09 13:23N 51°57' E 004°05'0 0.0
2017-Dec-09 12:56N 51°57' E 004°05'0 0.0
2017-Dec-09 12:17N 51°57' E 004°05'0 0.0
2017-Dec-09 11:56N 51°57' E 004°05'0 0.0
2017-Dec-09 11:29N 51°57' E 004°05'0 0.0
2017-Dec-09 10:56N 51°57' E 004°05'0 0.0
2017-Dec-09 10:14N 51°57' E 004°05'0 0.0
2017-Dec-09 09:56N 51°57' E 004°05'0 0.0
2017-Dec-09 09:30N 51°57' E 004°05'0 0.0
2017-Dec-09 08:59N 51°57' E 004°05'0 0.0
2017-Dec-09 08:26N 51°57' E 004°05'0 0.0
2017-Dec-09 07:59N 51°57' E 004°05'0 0.0
2017-Dec-09 07:29N 51°57' E 004°05'0 0.0
2017-Dec-09 06:59N 51°57' E 004°05'0 0.0
2017-Dec-09 06:29N 51°57' E 004°05'0 0.0
2017-Dec-09 05:59N 51°57' E 004°05'0 0.0
2017-Dec-09 05:29N 51°57' E 004°05'0 0.0
2017-Dec-09 04:59N 51°57' E 004°05'0 0.0
2017-Dec-09 04:29N 51°57' E 004°05'0 0.0
2017-Dec-09 03:59N 51°57' E 004°05'0 0.0
2017-Dec-09 03:26N 51°57' E 004°05'0 0.0
2017-Dec-09 02:53N 51°57' E 004°05'0 0.0
2017-Dec-09 02:26N 51°57' E 004°05'0 0.0
2017-Dec-09 01:56N 51°57' E 004°05'0 0.0
2017-Dec-09 01:29N 51°57' E 004°05'0 0.0
2017-Dec-09 00:59N 51°57' E 004°05'0 0.0
2017-Dec-09 00:26N 51°57' E 004°05'0 0.0
2017-Dec-08 23:56N 51°57' E 004°05'0 0.0
2017-Dec-08 23:29N 51°57' E 004°05'0 0.0
2017-Dec-08 22:59N 51°57' E 004°05'0 0.0
2017-Dec-08 22:26N 51°57' E 004°05'0 0.0
2017-Dec-08 21:59N 51°57' E 004°05'0 0.0
2017-Dec-08 21:26N 51°57' E 004°05'0 0.0
2017-Dec-08 20:59N 51°57' E 004°05'0 0.0
2017-Dec-08 20:29N 51°57' E 004°05'0 0.0
2017-Dec-08 19:59N 51°57' E 004°05'0 0.0
2017-Dec-08 19:29N 51°57' E 004°05'0 0.0
2017-Dec-08 18:59N 51°57' E 004°05'0 0.0
2017-Dec-08 18:29N 51°57' E 004°05'0 0.0
2017-Dec-08 17:59N 51°57' E 004°05'0 0.0
2017-Dec-08 17:29N 51°57' E 004°05'0 0.0
2017-Dec-08 16:59N 51°57' E 004°05'0 0.0
2017-Dec-08 16:29N 51°57' E 004°05'0 0.0
2017-Dec-08 15:59N 51°57' E 004°05'0 0.0
2017-Dec-08 15:29N 51°57' E 004°05'0 0.0
2017-Dec-08 14:59N 51°57' E 004°05'0 0.0
2017-Dec-08 14:29N 51°57' E 004°05'0 0.0
2017-Dec-08 13:59N 51°57' E 004°05'0 0.0
2017-Dec-08 13:26N 51°57' E 004°05'0 0.0
2017-Dec-08 12:59N 51°57' E 004°05'0 0.0
2017-Dec-08 12:29N 51°57' E 004°05'0 0.0
2017-Dec-08 11:59N 51°57' E 004°05'0 0.0
2017-Dec-08 11:29N 51°57' E 004°05'0 0.0
2017-Dec-08 10:59N 51°57' E 004°05'0 0.0
2017-Dec-08 10:29N 51°57' E 004°05'0 0.0
2017-Dec-08 09:59N 51°57' E 004°05'0 0.0
2017-Dec-08 09:29N 51°57' E 004°05'0 0.0
2017-Dec-08 08:56N 51°57' E 004°05'0 0.0
2017-Dec-08 08:26N 51°57' E 004°05'0 0.0
2017-Dec-08 07:59N 51°57' E 004°05'0 0.0
2017-Dec-08 07:29N 51°57' E 004°05'0 0.0
2017-Dec-08 06:56N 51°57' E 004°05'0 0.0
2017-Dec-08 06:29N 51°57' E 004°05'0 0.0
2017-Dec-08 05:59N 51°57' E 004°05'0 0.0
2017-Dec-08 05:23N 51°57' E 004°05'0 0.0
2017-Dec-08 04:59N 51°57' E 004°05'0 0.0
2017-Dec-08 04:26N 51°57' E 004°05'0 0.0
2017-Dec-08 03:59N 51°57' E 004°05'0 0.0
2017-Dec-08 03:29N 51°57' E 004°05'0 0.0
2017-Dec-08 02:59N 51°57' E 004°05'0 0.0
2017-Dec-08 02:29N 51°57' E 004°05'0 0.0
2017-Dec-08 02:00N 51°57' E 004°05'1 1.8
2017-Dec-08 01:30N 51°58' E 004°05'4 8.6
2017-Dec-08 01:00N 52°00' E 003°59'4 7.9
2017-Dec-08 00:30N 51°60' E 003°53'4 7.9
2017-Dec-08 00:00N 52°01' E 003°47'2 4.4
2017-Dec-07 23:30N 51°60' E 003°43'4 7.2
2017-Dec-07 23:00N 52°03' E 003°46'612.2
2017-Dec-07 22:31N 52°09' E 003°46'713.9
2017-Dec-07 21:59N 52°16' E 003°46'612.8
2017-Dec-07 21:31N 52°22' E 003°49'611.4
2017-Dec-07 21:00N 52°25' E 003°57'3 6.7
2017-Dec-07 20:31N 52°27' E 004°02'0 0.7
2017-Dec-07 19:58N 52°27' E 004°01'0 0.1
2017-Dec-07 19:28N 52°27' E 004°01'0 0.0
2017-Dec-07 18:58N 52°27' E 004°01'0 0.1
2017-Dec-07 18:28N 52°27' E 004°01'0 0.0
2017-Dec-07 17:58N 52°27' E 004°01'0 0.0
2017-Dec-07 17:28N 52°27' E 004°01'0 0.1
2017-Dec-07 16:58N 52°27' E 004°01'0 0.0
2017-Dec-07 16:28N 52°27' E 004°01'0 0.0
2017-Dec-07 15:58N 52°27' E 004°01'0 0.0
2017-Dec-07 15:28N 52°27' E 004°01'0 0.0
2017-Dec-07 14:58N 52°27' E 004°01'0 0.2
2017-Dec-07 14:28N 52°27' E 004°01'0 0.2
2017-Dec-07 13:58N 52°27' E 004°01'0 0.2
2017-Dec-07 13:28N 52°27' E 004°01'0 0.1
2017-Dec-07 12:55N 52°27' E 004°01'0 0.1
2017-Dec-07 12:28N 52°27' E 004°01'0 0.0
2017-Dec-07 11:58N 52°27' E 004°01'0 0.0
2017-Dec-07 11:28N 52°27' E 004°01'0 0.0
2017-Dec-07 10:58N 52°27' E 004°01'0 0.0
2017-Dec-07 10:28N 52°27' E 004°01'0 0.0
2017-Dec-07 09:58N 52°27' E 004°01'0 0.1
2017-Dec-07 09:28N 52°27' E 004°01'0 0.1
2017-Dec-07 08:58N 52°27' E 004°01'0 0.1
2017-Dec-07 08:28N 52°27' E 004°01'0 0.1
2017-Dec-07 07:58N 52°27' E 004°01'0 0.1
2017-Dec-07 07:28N 52°27' E 004°01'0 0.1
2017-Dec-07 06:58N 52°27' E 004°01'0 0.1
2017-Dec-07 06:28N 52°27' E 004°01'0 0.0
2017-Dec-07 05:58N 52°27' E 004°01'0 0.1
2017-Dec-07 05:28N 52°27' E 004°01'0 0.0
2017-Dec-07 04:58N 52°27' E 004°01'0 0.0
2017-Dec-07 04:28N 52°27' E 004°01'0 0.1
2017-Dec-07 03:58N 52°27' E 004°01'0 0.0
2017-Dec-07 03:28N 52°27' E 004°01'0 0.0
2017-Dec-07 02:58N 52°27' E 004°01'0 0.1
2017-Dec-07 02:28N 52°27' E 004°01'0 0.2
2017-Dec-07 01:55N 52°27' E 004°01'0 0.1
2017-Dec-07 01:28N 52°27' E 004°01'0 0.0
2017-Dec-07 00:58N 52°27' E 004°01'0 0.1
2017-Dec-07 00:28N 52°27' E 004°01'0 0.2
2017-Dec-06 23:58N 52°27' E 004°01'0 0.2
2017-Dec-06 23:28N 52°27' E 004°01'0 0.2
2017-Dec-06 22:58N 52°27' E 004°01'0 0.1
2017-Dec-06 22:28N 52°27' E 004°01'0 0.1
2017-Dec-06 21:58N 52°27' E 004°01'0 0.0
2017-Dec-06 21:25N 52°27' E 004°01'0 0.1
2017-Dec-06 20:58N 52°27' E 004°01'  
2017-Dec-02 23:19N 53°27' E 006°49'0 0.0
2017-Dec-02 23:01N 53°27' E 006°49'0 0.0
2017-Dec-02 22:30N 53°27' E 006°49'0 0.1
2017-Dec-02 22:00N 53°27' E 006°49'1 1.4
2017-Dec-02 21:31N 53°27' E 006°50'3 5.3
2017-Dec-02 21:00N 53°30' E 006°49'3 6.0
2017-Dec-02 20:30N 53°32' E 006°45'102 4.1
2017-Dec-01 19:52N 53°01' E 004°02'911.8
2017-Dec-01 19:07N 52°55' E 004°13'112.4
2017-Dec-01 19:00N 52°54' E 004°15'510.5
2017-Dec-01 18:30N 52°49' E 004°12'611.9
2017-Dec-01 18:00N 52°44' E 004°07'612.0
2017-Dec-01 17:30N 52°40' E 003°60'611.7
2017-Dec-01 17:00N 52°35' E 003°54'611.4
2017-Dec-01 16:30N 52°30' E 003°51'5 9.4
2017-Dec-01 16:01N 52°27' E 003°57'1 1.5
2017-Dec-01 15:26N 52°26' E 003°58'0 0.3
2017-Dec-01 14:59N 52°26' E 003°58'0 0.0
2017-Dec-01 14:29N 52°26' E 003°58'0 0.0
2017-Dec-01 13:58N 52°26' E 003°58'0 0.1
2017-Dec-01 13:29N 52°26' E 003°58'0 0.0
2017-Dec-01 13:00N 52°26' E 003°58'0 0.1
2017-Dec-01 12:30N 52°26' E 003°58'0 0.0
2017-Dec-01 12:00N 52°26' E 003°58'0 0.1
2017-Dec-01 11:30N 52°26' E 003°58'0 0.7
2017-Dec-01 11:01N 52°26' E 003°58'4 8.3
2017-Dec-01 10:30N 52°26' E 003°51'612.1
2017-Dec-01 10:00N 52°26' E 003°41'2710.7
2017-Dec-01 07:27N 52°08' E 003°07'  
Track history (hours):
 
Tides and Currents Weather Stations Pressure Air Temp Water Temp Dewpoint Dewpoint Depression Visibility Wind Speed Wind Dir Waves Ship Positions

Pti Danube

Last reported at 2017-Dec-11 07:06 UTC. Time now 2017-Dec-18 20:35 UTC.
Position N 49°47' W 003°26'.

Length 183 m; draft 12.1 m.

Type: Ship. MMSI: 477043600.

Date/timePositionNaut miles runAvg speedWind from/ knotsBaromVisibWave heightAir tempDewpointWater temp
2017-Dec-11 07:06N 49°47' W 003°26'112.8
2017-Dec-11 07:01N 49°48' W 003°25'612.9
2017-Dec-11 06:31N 49°51' W 003°16'712.9
2017-Dec-11 06:00N 49°55' W 003°07'612.9
2017-Dec-11 05:30N 49°58' W 002°58'612.5
2017-Dec-11 05:00N 50°00' W 002°49'612.1
2017-Dec-11 04:30N 50°02' W 002°41'611.7
2017-Dec-11 03:58N 50°04' W 002°31'8610.9
2017-Dec-10 20:06N 50°26' W 000°22'113.1
2017-Dec-10 20:00N 50°27' W 000°20'612.7
2017-Dec-10 19:31N 50°28' W 000°10'612.0
2017-Dec-10 19:01N 50°30' W 000°01'510.4
2017-Dec-10 18:31N 50°31' E 000°07'5 9.4
2017-Dec-10 18:00N 50°33' E 000°14'4 8.6
2017-Dec-10 17:31N 50°34' E 000°20'4 7.9
2017-Dec-10 17:01N 50°35' E 000°26'4 7.5
2017-Dec-10 16:31N 50°36' E 000°32'3 6.8
2017-Dec-10 16:01N 50°37' E 000°37'3 5.5
2017-Dec-10 15:31N 50°39' E 000°41'2 4.4
2017-Dec-10 15:00N 50°40' E 000°44'2 3.9
2017-Dec-10 14:31N 50°41' E 000°46'2 3.0
2017-Dec-10 14:01N 50°42' E 000°48'1 1.8
2017-Dec-10 13:31N 50°42' E 000°49'1 1.7
2017-Dec-10 13:01N 50°43' E 000°50'1 1.7
2017-Dec-10 12:31N 50°43' E 000°51'2 4.0
2017-Dec-10 12:01N 50°44' E 000°54'3 6.8
2017-Dec-10 11:30N 50°46' E 000°58'4 7.6
2017-Dec-10 11:01N 50°48' E 001°03'4 8.5
2017-Dec-10 10:29N 50°51' E 001°09'5 9.2
2017-Dec-10 09:57N 50°54' E 001°16'5 9.6
2017-Dec-10 09:23N 50°58' E 001°22'410.3
2017-Dec-10 09:00N 51°01' E 001°26'510.7
2017-Dec-10 08:31N 51°04' E 001°32'510.6
2017-Dec-10 08:00N 51°08' E 001°38'510.5
2017-Dec-10 07:31N 51°12' E 001°43'5 9.9
2017-Dec-10 07:01N 51°16' E 001°48'5 9.8
2017-Dec-10 06:31N 51°20' E 001°51'5 9.9
2017-Dec-10 06:00N 51°25' E 001°55'510.3
2017-Dec-10 05:30N 51°29' E 001°60'511.0
2017-Dec-10 05:01N 51°33' E 002°06'611.5
2017-Dec-10 04:30N 51°37' E 002°12'711.9
2017-Dec-10 03:52N 51°43' E 002°20'5111.8
2017-Dec-09 23:30N 52°03' E 003°37'611.7
2017-Dec-09 23:00N 52°03' E 003°46'4 9.0
2017-Dec-09 22:31N 52°03' E 003°53'2 5.0
2017-Dec-09 22:01N 52°02' E 003°57'510.6
2017-Dec-09 21:31N 51°59' E 004°04'2 3.7
2017-Dec-09 21:01N 51°57' E 004°05'0 0.0
2017-Dec-09 20:29N 51°57' E 004°05'0 0.0
2017-Dec-09 19:59N 51°57' E 004°05'0 0.0
2017-Dec-09 19:29N 51°57' E 004°05'0 0.0
2017-Dec-09 18:59N 51°57' E 004°05'0 0.0
2017-Dec-09 18:26N 51°57' E 004°05'0 0.0
2017-Dec-09 17:59N 51°57' E 004°05'0 0.0
2017-Dec-09 17:29N 51°57' E 004°05'0 0.0
2017-Dec-09 16:59N 51°57' E 004°05'0 0.0
2017-Dec-09 16:29N 51°57' E 004°05'0 0.0
2017-Dec-09 15:59N 51°57' E 004°05'0 0.0
2017-Dec-09 15:26N 51°57' E 004°05'0 0.0
2017-Dec-09 14:56N 51°57' E 004°05'0 0.0
2017-Dec-09 14:29N 51°57' E 004°05'0 0.0
2017-Dec-09 13:56N 51°57' E 004°05'0 0.0
2017-Dec-09 13:23N 51°57' E 004°05'0 0.0
2017-Dec-09 12:56N 51°57' E 004°05'0 0.0
2017-Dec-09 12:17N 51°57' E 004°05'0 0.0
2017-Dec-09 11:56N 51°57' E 004°05'0 0.0
2017-Dec-09 11:29N 51°57' E 004°05'0 0.0
2017-Dec-09 10:56N 51°57' E 004°05'0 0.0
2017-Dec-09 10:14N 51°57' E 004°05'0 0.0
2017-Dec-09 09:56N 51°57' E 004°05'0 0.0
2017-Dec-09 09:30N 51°57' E 004°05'0 0.0
2017-Dec-09 08:59N 51°57' E 004°05'0 0.0
2017-Dec-09 08:26N 51°57' E 004°05'0 0.0
2017-Dec-09 07:59N 51°57' E 004°05'0 0.0
2017-Dec-09 07:29N 51°57' E 004°05'0 0.0
2017-Dec-09 06:59N 51°57' E 004°05'0 0.0
2017-Dec-09 06:29N 51°57' E 004°05'0 0.0
2017-Dec-09 05:59N 51°57' E 004°05'0 0.0
2017-Dec-09 05:29N 51°57' E 004°05'0 0.0
2017-Dec-09 04:59N 51°57' E 004°05'0 0.0
2017-Dec-09 04:29N 51°57' E 004°05'0 0.0
2017-Dec-09 03:59N 51°57' E 004°05'0 0.0
2017-Dec-09 03:26N 51°57' E 004°05'0 0.0
2017-Dec-09 02:53N 51°57' E 004°05'0 0.0
2017-Dec-09 02:26N 51°57' E 004°05'0 0.0
2017-Dec-09 01:56N 51°57' E 004°05'0 0.0
2017-Dec-09 01:29N 51°57' E 004°05'0 0.0
2017-Dec-09 00:59N 51°57' E 004°05'0 0.0
2017-Dec-09 00:26N 51°57' E 004°05'0 0.0
2017-Dec-08 23:56N 51°57' E 004°05'0 0.0
2017-Dec-08 23:29N 51°57' E 004°05'0 0.0
2017-Dec-08 22:59N 51°57' E 004°05'0 0.0
2017-Dec-08 22:26N 51°57' E 004°05'0 0.0
2017-Dec-08 21:59N 51°57' E 004°05'0 0.0
2017-Dec-08 21:26N 51°57' E 004°05'0 0.0
2017-Dec-08 20:59N 51°57' E 004°05'0 0.0
2017-Dec-08 20:29N 51°57' E 004°05'0 0.0
2017-Dec-08 19:59N 51°57' E 004°05'0 0.0
2017-Dec-08 19:29N 51°57' E 004°05'0 0.0
2017-Dec-08 18:59N 51°57' E 004°05'0 0.0
2017-Dec-08 18:29N 51°57' E 004°05'0 0.0
2017-Dec-08 17:59N 51°57' E 004°05'0 0.0
2017-Dec-08 17:29N 51°57' E 004°05'0 0.0
2017-Dec-08 16:59N 51°57' E 004°05'0 0.0
2017-Dec-08 16:29N 51°57' E 004°05'0 0.0
2017-Dec-08 15:59N 51°57' E 004°05'0 0.0
2017-Dec-08 15:29N 51°57' E 004°05'0 0.0
2017-Dec-08 14:59N 51°57' E 004°05'0 0.0
2017-Dec-08 14:29N 51°57' E 004°05'0 0.0
2017-Dec-08 13:59N 51°57' E 004°05'0 0.0
2017-Dec-08 13:26N 51°57' E 004°05'0 0.0
2017-Dec-08 12:59N 51°57' E 004°05'0 0.0
2017-Dec-08 12:29N 51°57' E 004°05'0 0.0
2017-Dec-08 11:59N 51°57' E 004°05'0 0.0
2017-Dec-08 11:29N 51°57' E 004°05'0 0.0
2017-Dec-08 10:59N 51°57' E 004°05'0 0.0
2017-Dec-08 10:29N 51°57' E 004°05'0 0.0
2017-Dec-08 09:59N 51°57' E 004°05'0 0.0
2017-Dec-08 09:29N 51°57' E 004°05'0 0.0
2017-Dec-08 08:56N 51°57' E 004°05'0 0.0
2017-Dec-08 08:26N 51°57' E 004°05'0 0.0
2017-Dec-08 07:59N 51°57' E 004°05'0 0.0
2017-Dec-08 07:29N 51°57' E 004°05'0 0.0
2017-Dec-08 06:56N 51°57' E 004°05'0 0.0
2017-Dec-08 06:29N 51°57' E 004°05'0 0.0
2017-Dec-08 05:59N 51°57' E 004°05'0 0.0
2017-Dec-08 05:23N 51°57' E 004°05'0 0.0
2017-Dec-08 04:59N 51°57' E 004°05'0 0.0
2017-Dec-08 04:26N 51°57' E 004°05'0 0.0
2017-Dec-08 03:59N 51°57' E 004°05'0 0.0
2017-Dec-08 03:29N 51°57' E 004°05'0 0.0
2017-Dec-08 02:59N 51°57' E 004°05'0 0.0
2017-Dec-08 02:29N 51°57' E 004°05'0 0.0
2017-Dec-08 02:00N 51°57' E 004°05'1 1.8
2017-Dec-08 01:30N 51°58' E 004°05'4 8.6
2017-Dec-08 01:00N 52°00' E 003°59'4 7.9
2017-Dec-08 00:30N 51°60' E 003°53'4 7.9
2017-Dec-08 00:00N 52°01' E 003°47'2 4.4
2017-Dec-07 23:30N 51°60' E 003°43'4 7.2
2017-Dec-07 23:00N 52°03' E 003°46'612.2
2017-Dec-07 22:31N 52°09' E 003°46'713.9
2017-Dec-07 21:59N 52°16' E 003°46'612.8
2017-Dec-07 21:31N 52°22' E 003°49'611.4
2017-Dec-07 21:00N 52°25' E 003°57'3 6.7
2017-Dec-07 20:31N 52°27' E 004°02'0 0.7
2017-Dec-07 19:58N 52°27' E 004°01'0 0.1
2017-Dec-07 19:28N 52°27' E 004°01'0 0.0
2017-Dec-07 18:58N 52°27' E 004°01'0 0.1
2017-Dec-07 18:28N 52°27' E 004°01'0 0.0
2017-Dec-07 17:58N 52°27' E 004°01'0 0.0
2017-Dec-07 17:28N 52°27' E 004°01'0 0.1
2017-Dec-07 16:58N 52°27' E 004°01'0 0.0
2017-Dec-07 16:28N 52°27' E 004°01'0 0.0
2017-Dec-07 15:58N 52°27' E 004°01'0 0.0
2017-Dec-07 15:28N 52°27' E 004°01'0 0.0
2017-Dec-07 14:58N 52°27' E 004°01'0 0.2
2017-Dec-07 14:28N 52°27' E 004°01'0 0.2
2017-Dec-07 13:58N 52°27' E 004°01'0 0.2
2017-Dec-07 13:28N 52°27' E 004°01'0 0.1
2017-Dec-07 12:55N 52°27' E 004°01'0 0.1
2017-Dec-07 12:28N 52°27' E 004°01'0 0.0
2017-Dec-07 11:58N 52°27' E 004°01'0 0.0
2017-Dec-07 11:28N 52°27' E 004°01'0 0.0
2017-Dec-07 10:58N 52°27' E 004°01'0 0.0
2017-Dec-07 10:28N 52°27' E 004°01'0 0.0
2017-Dec-07 09:58N 52°27' E 004°01'0 0.1
2017-Dec-07 09:28N 52°27' E 004°01'0 0.1
2017-Dec-07 08:58N 52°27' E 004°01'0 0.1
2017-Dec-07 08:28N 52°27' E 004°01'0 0.1
2017-Dec-07 07:58N 52°27' E 004°01'0 0.1
2017-Dec-07 07:28N 52°27' E 004°01'0 0.1
2017-Dec-07 06:58N 52°27' E 004°01'0 0.1
2017-Dec-07 06:28N 52°27' E 004°01'0 0.0
2017-Dec-07 05:58N 52°27' E 004°01'0 0.1
2017-Dec-07 05:28N 52°27' E 004°01'0 0.0
2017-Dec-07 04:58N 52°27' E 004°01'0 0.0
2017-Dec-07 04:28N 52°27' E 004°01'0 0.1
2017-Dec-07 03:58N 52°27' E 004°01'0 0.0
2017-Dec-07 03:28N 52°27' E 004°01'0 0.0
2017-Dec-07 02:58N 52°27' E 004°01'0 0.1
2017-Dec-07 02:28N 52°27' E 004°01'0 0.2
2017-Dec-07 01:55N 52°27' E 004°01'0 0.1
2017-Dec-07 01:28N 52°27' E 004°01'0 0.0
2017-Dec-07 00:58N 52°27' E 004°01'0 0.1
2017-Dec-07 00:28N 52°27' E 004°01'0 0.2
2017-Dec-06 23:58N 52°27' E 004°01'0 0.2
2017-Dec-06 23:28N 52°27' E 004°01'0 0.2
2017-Dec-06 22:58N 52°27' E 004°01'0 0.1
2017-Dec-06 22:28N 52°27' E 004°01'0 0.1
2017-Dec-06 21:58N 52°27' E 004°01'0 0.0
2017-Dec-06 21:25N 52°27' E 004°01'0 0.1
2017-Dec-06 20:58N 52°27' E 004°01'  
2017-Dec-02 23:19N 53°27' E 006°49'0 0.0
2017-Dec-02 23:01N 53°27' E 006°49'0 0.0
2017-Dec-02 22:30N 53°27' E 006°49'0 0.1
2017-Dec-02 22:00N 53°27' E 006°49'1 1.4
2017-Dec-02 21:31N 53°27' E 006°50'3 5.3
2017-Dec-02 21:00N 53°30' E 006°49'3 6.0
2017-Dec-02 20:30N 53°32' E 006°45'102 4.1
2017-Dec-01 19:52N 53°01' E 004°02'911.8
2017-Dec-01 19:07N 52°55' E 004°13'112.4
2017-Dec-01 19:00N 52°54' E 004°15'510.5
2017-Dec-01 18:30N 52°49' E 004°12'611.9
2017-Dec-01 18:00N 52°44' E 004°07'612.0
2017-Dec-01 17:30N 52°40' E 003°60'611.7
2017-Dec-01 17:00N 52°35' E 003°54'611.4
2017-Dec-01 16:30N 52°30' E 003°51'5 9.4
2017-Dec-01 16:01N 52°27' E 003°57'1 1.5
2017-Dec-01 15:26N 52°26' E 003°58'0 0.3
2017-Dec-01 14:59N 52°26' E 003°58'0 0.0
2017-Dec-01 14:29N 52°26' E 003°58'0 0.0
2017-Dec-01 13:58N 52°26' E 003°58'0 0.1
2017-Dec-01 13:29N 52°26' E 003°58'0 0.0
2017-Dec-01 13:00N 52°26' E 003°58'0 0.1
2017-Dec-01 12:30N 52°26' E 003°58'0 0.0
2017-Dec-01 12:00N 52°26' E 003°58'0 0.1
2017-Dec-01 11:30N 52°26' E 003°58'0 0.7
2017-Dec-01 11:01N 52°26' E 003°58'4 8.3
2017-Dec-01 10:30N 52°26' E 003°51'612.1
2017-Dec-01 10:00N 52°26' E 003°41'2710.7
2017-Dec-01 07:27N 52°08' E 003°07'  

Dump ship's entire track history